Soldotna, AK

3:46 AM AKDT on October 24, 2014 (GMT -0800)
W. Corral PWS | Change Station
CLOSE
Current Station
Personal Weather Station
Location: Soldotna, AK
Elevation: 110 ft
Nearby Weather Stations

Elev 110 ft 60.49 °N, 151.08 °W | Updated 14 seconds ago

Clear
Clear
26.2 °F
Feels Like 26 °F
N
0.0
Wind Variable Wind from North
Gusts 0.0 mph

Today
High -- | Low -- °F
--% Chance of Precip.
Yesterday
High -- | Low -- °F
Precip. -- in
9:08 AM 6:27 PM
New Moon, 0% visible
Pressure 29.76 in
Visibility 10.0 miles
Clouds Clear
Windchill 26 °F
Dew Point 23 °F
Humidity 89%
Rainfall 0.00 in
Snow Depth Not available.
UV 0 out of 12
Pollen Not available.
Air Quality Not available.
Flu Activity Sporadic
METAR PASX 241136Z AUTO 07003KT 10SM CLR M03/M06 A2976 RMK AO1

More Conditions Fewer Conditions

Pressure 29.76 in
Visibility 10.0 miles
Clouds Clear
Windchill 26 °F
Dew Point 23 °F
Humidity 89%
Rainfall 0.00 in
Snow Depth Not available.
UV 0 out of 12
Pollen Not available.
Air Quality Not available.
Flu Activity Sporadic
METAR PASX 241136Z AUTO 07003KT 10SM CLR M03/M06 A2976 RMK AO1

More Conditions Fewer Conditions

10-Day Weather Forecast

Almanac

Astronomy

Oct. 24, 2014 Rise Set
Actual Time 9:08 AM AKDT 6:27 PM AKDT
Civil Twilight 8:24 AM AKDT 7:11 PM AKDT
Nautical Twilight 7:34 AM AKDT 8:00 PM AKDT
Astronomical Twilight 6:45 AM AKDT 8:49 PM AKDT
Moon 10:09 AM AKDT 6:58 PM AKDT
Length of Visible Light 10h 47m
Length of Day
9h 18m
Tomorrow will be 5m 25s shorter.
New Moon, 0% of the Moon is Illuminated
Today
New Moon
Oct 30
First Quarter
Nov 6
Full
Nov 14
Last Quarter
Nov 22
New

Today's Extremes

State Highs State Lows

Community

WunderPhotos

Upload Photos

1,764,526 photos uploaded!

Nearby

Snow Depth

Station Depth Elevation
Cooper Lake 1 in 1200 ft
MF Bradley River 0 in 2300 ft
Summit Creek 3 in 1400 ft
Mcneil Canyon 1 in 1320 ft
Grouse Creek Divide 0 in 700 ft

Earthquake Activity

City Distance Mag. Time & Date
No recent earthquake activity has been reported nearby.
Minimum magnitude displayed is 2.5.

Coastal Water Temperatures

Place Temperature
No Stations Reporting

Nearby Weather Stations